Five Mile, Ohio
Current Conditions -  °F | °C
As of 7:54 AM on Tuesday 21 Oct 2014 (Local Time) from KILN Reporting Station
Overcast Overcast  
Wind Chill: 44°   Ceiling: 6000
Heat Index: 49°   Visibility: 10mi
Dew Point: 44°   Wind: 13mph
Humidity: 83%   Direction: 310°NW
Pressure: 29.95"   Gusts: NA
Location:  39.064°N, 83.9197°W
Report Text: KILN 211154Z AUTO 31011KT 10SM OVC060 09/07 A2995 RMK AO2 SLP151 60000 70019 T00940067 10117 20094 53013 $
Loading
Personal Weather Stations






























Interactive Weather Map
Tropical Storm Tracking
New forecast layout! Learn more

10-Day Weather Forecast

Advertisements
Track Severe Weather on mobile